»·PEaware :: N554B KLBF-KTOR

N554B :: KLBF-KTOR

FLIGHT INFORMATION

Flight Status: Arrived
Operator: Privately registered:
United States
More flights under this callsign
Pilot: Judd L. (37249)
Aircraft: CESSNA 550 CITATION 2/S2/BRAVO
(C550)
More flights by this aircraft type
Origin: KLBF North Platte Regl-Bird
United States
Destination: KTOR Torrington Mun
United States
More flights between these airports :: More routes between these airports
Route: CIKSI
File this flight plan on PilotEdge
Remarks:
Altitude:
(Current/Filed)
24,000ft
Speed:
(Current/Filed)
280kts
Departed: 24-Nov-21 09:58 PM
Arrived: 24-Nov-21 10:36 PM
Distance/Time
Traveled:
166nm/0:38
Distance/Time
To Go:
Arrived

Flight Plot

Page will automatically refresh every two minutes.

Flight plan parsing failed; only flown route is shown


Map Options




Map Legend


Flown Route
Filed Route
Departure Airport
Arrival Airport
Navaid (VOR, NDB)
Fix

Horizontal Profiles

Position Reports

Time Latitude Longitude Heading Altitude Ground
Speed
24-Nov-21 21:17 41.131678 -100.696005 271 2777ft 0kts
24-Nov-21 21:18 41.131678 -100.696005 271 2777ft 0kts
24-Nov-21 21:19 41.131678 -100.696005 271 2777ft 0kts
24-Nov-21 21:21 41.131678 -100.696005 271 2777ft 0kts
24-Nov-21 21:22 41.131678 -100.696005 271 2777ft 0kts
24-Nov-21 21:23 41.131678 -100.696005 271 2777ft 0kts
24-Nov-21 21:24 41.131678 -100.696005 271 2777ft 0kts
24-Nov-21 21:25 41.131678 -100.696005 271 2777ft 0kts
24-Nov-21 21:26 41.131678 -100.696005 271 2777ft 0kts
24-Nov-21 21:27 41.131678 -100.696005 271 2777ft 0kts
24-Nov-21 21:28 41.131678 -100.696005 271 2777ft 0kts
24-Nov-21 21:29 41.131678 -100.696005 271 2777ft 0kts
24-Nov-21 21:30 41.131678 -100.696005 271 2777ft 0kts
24-Nov-21 21:31 41.131678 -100.696005 271 2777ft 0kts
24-Nov-21 21:32 41.131678 -100.696005 271 2777ft 0kts
24-Nov-21 21:33 41.131678 -100.696005 271 2777ft 0kts
24-Nov-21 21:34 41.131678 -100.696005 271 2777ft 0kts
24-Nov-21 21:35 41.131678 -100.696005 271 2777ft 0kts
24-Nov-21 21:36 41.131678 -100.696005 271 2777ft 0kts
24-Nov-21 21:37 41.131678 -100.696005 271 2777ft 0kts
24-Nov-21 21:38 41.131678 -100.696005 271 2777ft 0kts
24-Nov-21 21:39 41.131678 -100.696005 271 2777ft 0kts
24-Nov-21 21:40 41.131678 -100.696005 271 2777ft 0kts
24-Nov-21 21:41 41.131678 -100.696005 271 2777ft 0kts
24-Nov-21 21:41 41.131678 -100.696005 271 2777ft 0kts
24-Nov-21 21:43 41.131678 -100.696005 271 2777ft 0kts
24-Nov-21 21:44 41.131678 -100.696005 270 2777ft 0kts
24-Nov-21 21:45 41.131678 -100.696005 271 2777ft 0kts
24-Nov-21 21:46 41.131678 -100.696005 271 2777ft 0kts
24-Nov-21 21:46 41.131678 -100.696005 271 2777ft 0kts
24-Nov-21 21:48 41.131397 -100.696052 144 2777ft 6kts
24-Nov-21 21:49 41.130187 -100.694024 181 2777ft 8kts
24-Nov-21 21:50 41.126177 -100.694125 181 2775ft 19kts
24-Nov-21 21:50 41.121546 -100.694230 183 2774ft 16kts
24-Nov-21 21:51 41.121023 -100.694009 97 2774ft 0kts
24-Nov-21 21:52 41.121023 -100.694009 97 2774ft 0kts
24-Nov-21 21:54 41.121023 -100.694009 97 2774ft 0kts
24-Nov-21 21:55 41.121023 -100.694009 97 2774ft 0kts
24-Nov-21 21:55 41.121023 -100.694009 97 2774ft 0kts
24-Nov-21 21:56 41.121017 -100.693402 74 2774ft 4kts
24-Nov-21 21:57 41.128661 -100.692976 0 2810ft 118kts
24-Nov-21 21:58 41.171053 -100.694149 322 4425ft 188kts
24-Nov-21 21:59 41.179782 -100.769426 277 6058ft 224kts
24-Nov-21 22:00 41.181115 -100.853024 279 7673ft 228kts
24-Nov-21 22:01 41.189849 -100.942432 290 9619ft 269kts
24-Nov-21 22:02 41.213703 -101.040802 290 12174ft 283kts
24-Nov-21 22:03 41.238564 -101.142690 287 14785ft 296kts
24-Nov-21 22:04 41.263548 -101.246344 286 17384ft 294kts
24-Nov-21 22:05 41.288301 -101.348777 286 19825ft 290kts
24-Nov-21 22:06 41.312784 -101.450889 286 21862ft 298kts
24-Nov-21 22:07 41.338439 -101.558503 287 23462ft 313kts
24-Nov-21 22:08 41.365032 -101.670458 287 24447ft 325kts
24-Nov-21 22:09 41.392970 -101.788650 288 24450ft 338kts
24-Nov-21 22:10 41.420653 -101.906548 288 24449ft 331kts
24-Nov-21 22:11 41.453370 -102.020462 294 24447ft 329kts
24-Nov-21 22:12 41.487817 -102.132231 294 23888ft 321kts
24-Nov-21 22:13 41.521684 -102.242107 294 22967ft 318kts
24-Nov-21 22:14 41.554974 -102.350561 293 22140ft 313kts
24-Nov-21 22:15 41.587680 -102.457524 293 21419ft 310kts
24-Nov-21 22:16 41.620016 -102.563746 292 20695ft 309kts
24-Nov-21 22:17 41.652281 -102.670153 291 19971ft 304kts
24-Nov-21 22:18 41.682176 -102.771684 289 19288ft 289kts
24-Nov-21 22:19 41.709194 -102.874397 289 18793ft 295kts
24-Nov-21 22:20 41.736556 -102.977923 289 17915ft 289kts
24-Nov-21 22:21 41.762738 -103.076432 290 16459ft 279kts
24-Nov-21 22:22 41.788957 -103.175494 290 15043ft 284kts
24-Nov-21 22:23 41.815178 -103.275075 291 13623ft 283kts
24-Nov-21 22:24 41.841078 -103.374017 291 12205ft 282kts
24-Nov-21 22:25 41.866584 -103.471825 292 10600ft 269kts
24-Nov-21 22:26 41.890849 -103.564941 292 8851ft 261kts
24-Nov-21 22:27 41.914110 -103.654716 292 8017ft 250kts
24-Nov-21 22:28 41.936390 -103.740960 292 8015ft 243kts
24-Nov-21 22:29 41.956903 -103.820760 292 8013ft 210kts
24-Nov-21 22:30 41.973773 -103.897544 291 6981ft 220kts
24-Nov-21 22:31 41.998673 -103.971615 298 5668ft 218kts
24-Nov-21 22:32 42.024543 -104.044092 295 5526ft 214kts
24-Nov-21 22:33 42.046258 -104.104618 296 4838ft 159kts
24-Nov-21 22:34 42.060291 -104.144607 295 4229ft 101kts
24-Nov-21 22:35 42.064546 -104.158490 291 4200ft 4kts
24-Nov-21 22:36 42.064729 -104.159002 295 4199ft 9kts
24-Nov-21 22:37 42.065929 -104.162518 222 4198ft 3kts
24-Nov-21 22:38 42.065093 -104.160039 115 4198ft 11kts
24-Nov-21 22:39 42.063124 -104.158748 168 4197ft 2kts
24-Nov-21 22:40 42.063099 -104.158741 167 4197ft 0kts
24-Nov-21 22:41 42.047088 -104.106881 295 4799ft 153kts
24-Nov-21 22:42 42.059559 -104.142531 295 4259ft 103kts
24-Nov-21 22:43 42.064568 -104.158209 218 4201ft 6kts

Navigation Log

Ident Type
Flight plan parsing failed, navigation log unavailable